sensor_id;sensor_type;location;lat;lon;timestamp;P1;durP1;ratioP1;P2;durP2;ratioP2
11823;SDS011;5969;50.780;7.726;2023-10-09T00:02:23;6.03;;;5.45;;
11823;SDS011;5969;50.780;7.726;2023-10-09T00:04:55;6.85;;;6.00;;
11823;SDS011;5969;50.780;7.726;2023-10-09T00:07:22;8.32;;;5.70;;
11823;SDS011;5969;50.780;7.726;2023-10-09T00:09:55;7.70;;;5.55;;
11823;SDS011;5969;50.780;7.726;2023-10-09T00:12:23;6.03;;;5.43;;
11823;SDS011;5969;50.780;7.726;2023-10-09T00:14:51;6.95;;;5.55;;
11823;SDS011;5969;50.780;7.726;2023-10-09T00:17:20;5.40;;;4.97;;
11823;SDS011;5969;50.780;7.726;2023-10-09T00:19:48;7.00;;;4.97;;
11823;SDS011;5969;50.780;7.726;2023-10-09T00:22:21;5.50;;;5.00;;
11823;SDS011;5969;50.780;7.726;2023-10-09T00:24:58;5.95;;;5.35;;
11823;SDS011;5969;50.780;7.726;2023-10-09T00:27:40;5.85;;;5.35;;
11823;SDS011;5969;50.780;7.726;2023-10-09T00:30:11;5.55;;;5.05;;
11823;SDS011;5969;50.780;7.726;2023-10-09T00:32:54;7.82;;;5.65;;
11823;SDS011;5969;50.780;7.726;2023-10-09T00:35:26;6.30;;;5.70;;
11823;SDS011;5969;50.780;7.726;2023-10-09T00:38:17;5.88;;;5.28;;
11823;SDS011;5969;50.780;7.726;2023-10-09T00:40:48;5.97;;;5.47;;
11823;SDS011;5969;50.780;7.726;2023-10-09T00:43:25;5.95;;;5.32;;
11823;SDS011;5969;50.780;7.726;2023-10-09T00:45:53;5.25;;;4.75;;
11823;SDS011;5969;50.780;7.726;2023-10-09T00:48:21;5.30;;;4.80;;
11823;SDS011;5969;50.780;7.726;2023-10-09T00:50:56;6.30;;;5.35;;
11823;SDS011;5969;50.780;7.726;2023-10-09T00:53:26;6.85;;;5.25;;
11823;SDS011;5969;50.780;7.726;2023-10-09T00:55:58;5.90;;;5.35;;
11823;SDS011;5969;50.780;7.726;2023-10-09T00:58:43;5.20;;;4.70;;
11823;SDS011;5969;50.780;7.726;2023-10-09T01:01:13;5.40;;;4.60;;
11823;SDS011;5969;50.780;7.726;2023-10-09T01:03:41;4.53;;;4.13;;
11823;SDS011;5969;50.780;7.726;2023-10-09T01:06:09;4.72;;;4.22;;
11823;SDS011;5969;50.780;7.726;2023-10-09T01:08:47;4.65;;;4.22;;
11823;SDS011;5969;50.780;7.726;2023-10-09T01:11:32;4.30;;;3.90;;
11823;SDS011;5969;50.780;7.726;2023-10-09T01:14:18;4.60;;;4.20;;
11823;SDS011;5969;50.780;7.726;2023-10-09T01:16:46;5.10;;;4.60;;
11823;SDS011;5969;50.780;7.726;2023-10-09T01:19:14;5.18;;;4.47;;
11823;SDS011;5969;50.780;7.726;2023-10-09T01:21:49;5.95;;;4.70;;
11823;SDS011;5969;50.780;7.726;2023-10-09T01:24:17;5.55;;;5.03;;
11823;SDS011;5969;50.780;7.726;2023-10-09T01:26:47;5.65;;;4.57;;
11823;SDS011;5969;50.780;7.726;2023-10-09T01:29:15;6.20;;;4.72;;
11823;SDS011;5969;50.780;7.726;2023-10-09T01:31:44;5.97;;;4.38;;
11823;SDS011;5969;50.780;7.726;2023-10-09T01:34:18;5.43;;;4.47;;
11823;SDS011;5969;50.780;7.726;2023-10-09T01:36:50;4.22;;;3.83;;
11823;SDS011;5969;50.780;7.726;2023-10-09T01:39:21;6.25;;;4.13;;
11823;SDS011;5969;50.780;7.726;2023-10-09T01:41:53;3.92;;;3.58;;
11823;SDS011;5969;50.780;7.726;2023-10-09T01:44:25;5.10;;;3.90;;
11823;SDS011;5969;50.780;7.726;2023-10-09T01:46:55;4.38;;;3.97;;
11823;SDS011;5969;50.780;7.726;2023-10-09T01:49:24;4.03;;;3.63;;
11823;SDS011;5969;50.780;7.726;2023-10-09T01:51:57;4.45;;;4.05;;
11823;SDS011;5969;50.780;7.726;2023-10-09T01:54:34;4.90;;;3.95;;
11823;SDS011;5969;50.780;7.726;2023-10-09T01:57:03;4.95;;;4.45;;
11823;SDS011;5969;50.780;7.726;2023-10-09T01:59:37;6.28;;;4.20;;
11823;SDS011;5969;50.780;7.726;2023-10-09T02:02:08;3.67;;;3.38;;
11823;SDS011;5969;50.780;7.726;2023-10-09T02:04:39;4.45;;;4.03;;
11823;SDS011;5969;50.780;7.726;2023-10-09T02:07:06;4.28;;;3.78;;
11823;SDS011;5969;50.780;7.726;2023-10-09T02:09:35;7.80;;;4.30;;
11823;SDS011;5969;50.780;7.726;2023-10-09T02:12:10;6.88;;;4.70;;
11823;SDS011;5969;50.780;7.726;2023-10-09T02:14:38;9.35;;;5.65;;
11823;SDS011;5969;50.780;7.726;2023-10-09T02:17:07;6.22;;;4.68;;
11823;SDS011;5969;50.780;7.726;2023-10-09T02:19:42;6.75;;;5.63;;
11823;SDS011;5969;50.780;7.726;2023-10-09T02:22:13;6.13;;;5.13;;
11823;SDS011;5969;50.780;7.726;2023-10-09T02:24:43;7.30;;;5.40;;
11823;SDS011;5969;50.780;7.726;2023-10-09T02:27:17;6.47;;;5.70;;
11823;SDS011;5969;50.780;7.726;2023-10-09T02:30:02;6.72;;;5.05;;
11823;SDS011;5969;50.780;7.726;2023-10-09T02:32:40;5.68;;;5.13;;
11823;SDS011;5969;50.780;7.726;2023-10-09T02:35:08;8.40;;;6.30;;
11823;SDS011;5969;50.780;7.726;2023-10-09T02:37:44;7.65;;;5.35;;
11823;SDS011;5969;50.780;7.726;2023-10-09T02:40:13;7.30;;;5.10;;
11823;SDS011;5969;50.780;7.726;2023-10-09T02:42:49;5.15;;;4.65;;
11823;SDS011;5969;50.780;7.726;2023-10-09T02:45:16;4.78;;;3.88;;
11823;SDS011;5969;50.780;7.726;2023-10-09T02:47:44;4.35;;;3.95;;
11823;SDS011;5969;50.780;7.726;2023-10-09T02:50:13;4.50;;;4.10;;
11823;SDS011;5969;50.780;7.726;2023-10-09T02:52:45;4.30;;;3.90;;
11823;SDS011;5969;50.780;7.726;2023-10-09T02:55:15;4.18;;;3.63;;
11823;SDS011;5969;50.780;7.726;2023-10-09T02:57:49;3.95;;;3.55;;
11823;SDS011;5969;50.780;7.726;2023-10-09T03:00:21;3.78;;;3.47;;
11823;SDS011;5969;50.780;7.726;2023-10-09T03:02:54;3.35;;;3.05;;
11823;SDS011;5969;50.780;7.726;2023-10-09T03:05:23;3.38;;;3.08;;
11823;SDS011;5969;50.780;7.726;2023-10-09T03:07:52;3.25;;;2.95;;
11823;SDS011;5969;50.780;7.726;2023-10-09T03:10:21;2.97;;;2.78;;
11823;SDS011;5969;50.780;7.726;2023-10-09T03:12:48;3.40;;;3.10;;
11823;SDS011;5969;50.780;7.726;2023-10-09T03:15:18;3.30;;;3.00;;
11823;SDS011;5969;50.780;7.726;2023-10-09T03:17:45;3.25;;;3.05;;
11823;SDS011;5969;50.780;7.726;2023-10-09T03:20:13;3.75;;;3.45;;
11823;SDS011;5969;50.780;7.726;2023-10-09T03:22:42;3.85;;;3.45;;
11823;SDS011;5969;50.780;7.726;2023-10-09T03:25:11;3.90;;;3.55;;
11823;SDS011;5969;50.780;7.726;2023-10-09T03:27:41;3.90;;;3.20;;
11823;SDS011;5969;50.780;7.726;2023-10-09T03:30:11;3.60;;;3.30;;
11823;SDS011;5969;50.780;7.726;2023-10-09T03:32:42;3.50;;;3.20;;
11823;SDS011;5969;50.780;7.726;2023-10-09T03:35:14;4.95;;;3.42;;
11823;SDS011;5969;50.780;7.726;2023-10-09T03:37:48;4.00;;;3.60;;
11823;SDS011;5969;50.780;7.726;2023-10-09T03:40:16;3.45;;;3.15;;
11823;SDS011;5969;50.780;7.726;2023-10-09T03:42:45;5.35;;;3.50;;
11823;SDS011;5969;50.780;7.726;2023-10-09T03:45:13;3.25;;;2.95;;
11823;SDS011;5969;50.780;7.726;2023-10-09T03:47:50;3.50;;;3.20;;
11823;SDS011;5969;50.780;7.726;2023-10-09T03:50:22;5.00;;;3.47;;
11823;SDS011;5969;50.780;7.726;2023-10-09T03:52:59;4.35;;;3.92;;
11823;SDS011;5969;50.780;7.726;2023-10-09T03:55:25;4.85;;;3.55;;
11823;SDS011;5969;50.780;7.726;2023-10-09T03:57:55;4.80;;;3.63;;
11823;SDS011;5969;50.780;7.726;2023-10-09T04:00:23;3.60;;;3.30;;
11823;SDS011;5969;50.780;7.726;2023-10-09T04:02:54;3.67;;;3.17;;
11823;SDS011;5969;50.780;7.726;2023-10-09T04:05:22;3.70;;;3.25;;
11823;SDS011;5969;50.780;7.726;2023-10-09T04:07:49;5.30;;;3.42;;
11823;SDS011;5969;50.780;7.726;2023-10-09T04:10:18;4.63;;;3.55;;
11823;SDS011;5969;50.780;7.726;2023-10-09T04:13:11;3.22;;;2.92;;
11823;SDS011;5969;50.780;7.726;2023-10-09T04:15:42;3.60;;;3.30;;
11823;SDS011;5969;50.780;7.726;2023-10-09T04:18:09;3.53;;;3.22;;
11823;SDS011;5969;50.780;7.726;2023-10-09T04:20:42;3.72;;;3.40;;
11823;SDS011;5969;50.780;7.726;2023-10-09T04:23:40;4.43;;;3.15;;
11823;SDS011;5969;50.780;7.726;2023-10-09T04:26:30;4.82;;;3.30;;
11823;SDS011;5969;50.780;7.726;2023-10-09T04:29:01;4.18;;;3.22;;
11823;SDS011;5969;50.780;7.726;2023-10-09T04:31:28;4.18;;;3.35;;
11823;SDS011;5969;50.780;7.726;2023-10-09T04:33:59;4.88;;;3.50;;
11823;SDS011;5969;50.780;7.726;2023-10-09T04:36:44;3.63;;;3.33;;
11823;SDS011;5969;50.780;7.726;2023-10-09T04:39:15;5.47;;;4.93;;
11823;SDS011;5969;50.780;7.726;2023-10-09T04:42:00;5.47;;;4.97;;
11823;SDS011;5969;50.780;7.726;2023-10-09T04:44:55;4.38;;;4.00;;
11823;SDS011;5969;50.780;7.726;2023-10-09T04:47:38;4.03;;;3.20;;
11823;SDS011;5969;50.780;7.726;2023-10-09T04:50:14;3.85;;;3.20;;
11823;SDS011;5969;50.780;7.726;2023-10-09T04:52:56;3.65;;;3.30;;
11823;SDS011;5969;50.780;7.726;2023-10-09T04:55:43;4.32;;;3.13;;
11823;SDS011;5969;50.780;7.726;2023-10-09T04:58:19;3.95;;;3.30;;
11823;SDS011;5969;50.780;7.726;2023-10-09T05:00:51;3.42;;;3.13;;
11823;SDS011;5969;50.780;7.726;2023-10-09T05:03:41;3.47;;;3.17;;
11823;SDS011;5969;50.780;7.726;2023-10-09T05:06:11;3.47;;;3.17;;
11823;SDS011;5969;50.780;7.726;2023-10-09T05:09:09;4.88;;;3.13;;
11823;SDS011;5969;50.780;7.726;2023-10-09T05:11:39;3.70;;;3.30;;
11823;SDS011;5969;50.780;7.726;2023-10-09T05:14:23;6.30;;;5.70;;
11823;SDS011;5969;50.780;7.726;2023-10-09T05:17:04;6.72;;;6.13;;
11823;SDS011;5969;50.780;7.726;2023-10-09T05:19:34;5.63;;;5.05;;
11823;SDS011;5969;50.780;7.726;2023-10-09T05:22:24;4.47;;;4.07;;
11823;SDS011;5969;50.780;7.726;2023-10-09T05:25:08;4.90;;;4.38;;
11823;SDS011;5969;50.780;7.726;2023-10-09T05:27:55;6.70;;;5.57;;
11823;SDS011;5969;50.780;7.726;2023-10-09T05:30:41;7.78;;;6.55;;
11823;SDS011;5969;50.780;7.726;2023-10-09T05:33:09;11.75;;;10.05;;
11823;SDS011;5969;50.780;7.726;2023-10-09T05:35:50;5.40;;;4.15;;
11823;SDS011;5969;50.780;7.726;2023-10-09T05:38:40;4.43;;;4.00;;
11823;SDS011;5969;50.780;7.726;2023-10-09T05:41:11;6.50;;;5.28;;
11823;SDS011;5969;50.780;7.726;2023-10-09T05:43:56;7.00;;;5.05;;
11823;SDS011;5969;50.780;7.726;2023-10-09T05:46:40;5.07;;;4.55;;
11823;SDS011;5969;50.780;7.726;2023-10-09T05:49:30;4.38;;;3.75;;
11823;SDS011;5969;50.780;7.726;2023-10-09T05:52:11;4.38;;;3.97;;
11823;SDS011;5969;50.780;7.726;2023-10-09T05:54:52;4.68;;;3.45;;
11823;SDS011;5969;50.780;7.726;2023-10-09T05:57:49;4.95;;;4.45;;
11823;SDS011;5969;50.780;7.726;2023-10-09T06:00:34;5.75;;;5.10;;
11823;SDS011;5969;50.780;7.726;2023-10-09T06:03:19;7.80;;;4.97;;
11823;SDS011;5969;50.780;7.726;2023-10-09T06:06:10;5.43;;;4.15;;
11823;SDS011;5969;50.780;7.726;2023-10-09T06:08:43;4.60;;;4.03;;
11823;SDS011;5969;50.780;7.726;2023-10-09T06:11:27;3.78;;;3.40;;
11823;SDS011;5969;50.780;7.726;2023-10-09T06:14:15;5.35;;;3.50;;
11823;SDS011;5969;50.780;7.726;2023-10-09T06:16:50;5.65;;;3.50;;
11823;SDS011;5969;50.780;7.726;2023-10-09T06:19:26;5.03;;;3.60;;
11823;SDS011;5969;50.780;7.726;2023-10-09T06:21:57;4.18;;;3.78;;
11823;SDS011;5969;50.780;7.726;2023-10-09T06:25:05;5.07;;;4.57;;
11823;SDS011;5969;50.780;7.726;2023-10-09T06:27:36;9.18;;;5.60;;
11823;SDS011;5969;50.780;7.726;2023-10-09T06:30:22;5.65;;;5.13;;
11823;SDS011;5969;50.780;7.726;2023-10-09T06:32:54;7.70;;;5.97;;
11823;SDS011;5969;50.780;7.726;2023-10-09T06:35:23;7.05;;;5.20;;
11823;SDS011;5969;50.780;7.726;2023-10-09T06:37:57;9.02;;;4.70;;
11823;SDS011;5969;50.780;7.726;2023-10-09T06:40:47;4.95;;;4.53;;
11823;SDS011;5969;50.780;7.726;2023-10-09T06:43:32;5.07;;;4.57;;
11823;SDS011;5969;50.780;7.726;2023-10-09T06:46:03;5.18;;;4.38;;
11823;SDS011;5969;50.780;7.726;2023-10-09T06:48:47;5.05;;;4.30;;
11823;SDS011;5969;50.780;7.726;2023-10-09T06:51:22;6.63;;;4.53;;
11823;SDS011;5969;50.780;7.726;2023-10-09T06:54:06;4.95;;;4.18;;
11823;SDS011;5969;50.780;7.726;2023-10-09T06:56:43;3.67;;;3.35;;
11823;SDS011;5969;50.780;7.726;2023-10-09T06:59:28;5.93;;;5.05;;
11823;SDS011;5969;50.780;7.726;2023-10-09T07:02:08;5.55;;;5.05;;
11823;SDS011;5969;50.780;7.726;2023-10-09T07:04:50;5.60;;;5.07;;
11823;SDS011;5969;50.780;7.726;2023-10-09T07:07:20;5.32;;;4.70;;
11823;SDS011;5969;50.780;7.726;2023-10-09T07:09:50;5.18;;;4.32;;
11823;SDS011;5969;50.780;7.726;2023-10-09T07:12:34;6.55;;;5.90;;
11823;SDS011;5969;50.780;7.726;2023-10-09T07:15:08;7.47;;;5.80;;
11823;SDS011;5969;50.780;7.726;2023-10-09T07:17:54;5.20;;;4.70;;
11823;SDS011;5969;50.780;7.726;2023-10-09T07:20:41;5.22;;;4.25;;
11823;SDS011;5969;50.780;7.726;2023-10-09T07:23:10;4.82;;;4.10;;
11823;SDS011;5969;50.780;7.726;2023-10-09T07:25:41;5.38;;;4.35;;
11823;SDS011;5969;50.780;7.726;2023-10-09T07:28:19;10.27;;;8.00;;
11823;SDS011;5969;50.780;7.726;2023-10-09T07:31:01;10.18;;;7.82;;
11823;SDS011;5969;50.780;7.726;2023-10-09T07:33:30;17.02;;;12.18;;
11823;SDS011;5969;50.780;7.726;2023-10-09T07:36:17;7.90;;;6.13;;
11823;SDS011;5969;50.780;7.726;2023-10-09T07:38:54;7.22;;;4.90;;
11823;SDS011;5969;50.780;7.726;2023-10-09T07:41:22;7.13;;;4.63;;
11823;SDS011;5969;50.780;7.726;2023-10-09T07:44:04;4.75;;;3.92;;
11823;SDS011;5969;50.780;7.726;2023-10-09T07:46:44;5.93;;;4.93;;
11823;SDS011;5969;50.780;7.726;2023-10-09T07:49:19;5.28;;;3.80;;
11823;SDS011;5969;50.780;7.726;2023-10-09T07:51:50;6.05;;;4.47;;
11823;SDS011;5969;50.780;7.726;2023-10-09T07:54:17;9.18;;;7.95;;
11823;SDS011;5969;50.780;7.726;2023-10-09T07:56:57;5.18;;;4.65;;
11823;SDS011;5969;50.780;7.726;2023-10-09T07:59:34;5.13;;;4.63;;
11823;SDS011;5969;50.780;7.726;2023-10-09T08:02:06;5.10;;;4.43;;
11823;SDS011;5969;50.780;7.726;2023-10-09T08:04:40;6.93;;;4.80;;
11823;SDS011;5969;50.780;7.726;2023-10-09T08:07:14;4.07;;;3.72;;
11823;SDS011;5969;50.780;7.726;2023-10-09T08:09:50;5.32;;;4.32;;
11823;SDS011;5969;50.780;7.726;2023-10-09T08:12:31;9.35;;;4.07;;
11823;SDS011;5969;50.780;7.726;2023-10-09T08:15:21;5.53;;;4.10;;
11823;SDS011;5969;50.780;7.726;2023-10-09T08:17:52;5.68;;;4.72;;
11823;SDS011;5969;50.780;7.726;2023-10-09T08:20:22;5.25;;;3.97;;
11823;SDS011;5969;50.780;7.726;2023-10-09T08:22:51;4.93;;;4.38;;
11823;SDS011;5969;50.780;7.726;2023-10-09T08:25:20;5.00;;;4.03;;
11823;SDS011;5969;50.780;7.726;2023-10-09T08:27:55;4.70;;;4.10;;
11823;SDS011;5969;50.780;7.726;2023-10-09T08:30:23;7.82;;;4.70;;
11823;SDS011;5969;50.780;7.726;2023-10-09T08:33:06;6.88;;;4.13;;
11823;SDS011;5969;50.780;7.726;2023-10-09T08:35:52;4.88;;;4.32;;
11823;SDS011;5969;50.780;7.726;2023-10-09T08:38:21;6.30;;;4.88;;
11823;SDS011;5969;50.780;7.726;2023-10-09T08:40:48;5.57;;;5.00;;
11823;SDS011;5969;50.780;7.726;2023-10-09T08:43:16;5.25;;;4.75;;
11823;SDS011;5969;50.780;7.726;2023-10-09T08:45:45;6.05;;;4.28;;
11823;SDS011;5969;50.780;7.726;2023-10-09T08:48:13;7.25;;;5.15;;
11823;SDS011;5969;50.780;7.726;2023-10-09T08:50:41;5.63;;;4.43;;
11823;SDS011;5969;50.780;7.726;2023-10-09T08:53:11;8.35;;;4.97;;
11823;SDS011;5969;50.780;7.726;2023-10-09T08:55:38;6.07;;;4.32;;
11823;SDS011;5969;50.780;7.726;2023-10-09T08:58:07;4.85;;;4.25;;
11823;SDS011;5969;50.780;7.726;2023-10-09T09:00:43;5.10;;;4.50;;
11823;SDS011;5969;50.780;7.726;2023-10-09T09:03:11;6.20;;;4.88;;
11823;SDS011;5969;50.780;7.726;2023-10-09T09:05:38;9.77;;;5.15;;
11823;SDS011;5969;50.780;7.726;2023-10-09T09:08:12;6.85;;;4.60;;
11823;SDS011;5969;50.780;7.726;2023-10-09T09:10:50;6.60;;;4.57;;
11823;SDS011;5969;50.780;7.726;2023-10-09T09:13:18;7.47;;;4.68;;
11823;SDS011;5969;50.780;7.726;2023-10-09T09:15:46;7.70;;;5.30;;
11823;SDS011;5969;50.780;7.726;2023-10-09T09:18:13;7.25;;;5.20;;
11823;SDS011;5969;50.780;7.726;2023-10-09T09:20:42;6.40;;;4.70;;
11823;SDS011;5969;50.780;7.726;2023-10-09T09:23:13;7.05;;;5.45;;
11823;SDS011;5969;50.780;7.726;2023-10-09T09:25:40;9.93;;;5.10;;
11823;SDS011;5969;50.780;7.726;2023-10-09T09:28:11;6.07;;;4.72;;
11823;SDS011;5969;50.780;7.726;2023-10-09T09:30:44;6.03;;;4.43;;
11823;SDS011;5969;50.780;7.726;2023-10-09T09:33:19;5.63;;;4.05;;
11823;SDS011;5969;50.780;7.726;2023-10-09T09:35:59;4.70;;;4.05;;
11823;SDS011;5969;50.780;7.726;2023-10-09T09:38:30;6.15;;;4.15;;
11823;SDS011;5969;50.780;7.726;2023-10-09T09:41:07;7.57;;;5.55;;
11823;SDS011;5969;50.780;7.726;2023-10-09T09:43:35;5.65;;;4.80;;
11823;SDS011;5969;50.780;7.726;2023-10-09T09:46:05;8.40;;;5.13;;
11823;SDS011;5969;50.780;7.726;2023-10-09T09:48:39;8.27;;;5.15;;
11823;SDS011;5969;50.780;7.726;2023-10-09T09:51:11;7.80;;;6.07;;
11823;SDS011;5969;50.780;7.726;2023-10-09T09:53:40;8.63;;;6.03;;
11823;SDS011;5969;50.780;7.726;2023-10-09T09:56:07;8.07;;;6.32;;
11823;SDS011;5969;50.780;7.726;2023-10-09T09:58:39;8.25;;;5.20;;
11823;SDS011;5969;50.780;7.726;2023-10-09T10:01:08;8.10;;;5.47;;
11823;SDS011;5969;50.780;7.726;2023-10-09T10:03:42;9.13;;;5.70;;
11823;SDS011;5969;50.780;7.726;2023-10-09T10:06:12;7.13;;;4.93;;
11823;SDS011;5969;50.780;7.726;2023-10-09T10:08:42;19.23;;;6.28;;
11823;SDS011;5969;50.780;7.726;2023-10-09T10:11:12;9.65;;;6.00;;
11823;SDS011;5969;50.780;7.726;2023-10-09T10:13:59;9.82;;;6.18;;
11823;SDS011;5969;50.780;7.726;2023-10-09T10:16:27;11.45;;;5.38;;
11823;SDS011;5969;50.780;7.726;2023-10-09T10:19:00;7.65;;;5.72;;
11823;SDS011;5969;50.780;7.726;2023-10-09T10:21:46;9.18;;;5.20;;
11823;SDS011;5969;50.780;7.726;2023-10-09T10:27:18;7.95;;;5.57;;
11823;SDS011;5969;50.780;7.726;2023-10-09T10:32:41;6.38;;;4.63;;
11823;SDS011;5969;50.780;7.726;2023-10-09T10:35:19;6.88;;;5.20;;
11823;SDS011;5969;50.780;7.726;2023-10-09T10:37:57;8.88;;;5.40;;
11823;SDS011;5969;50.780;7.726;2023-10-09T10:40:36;6.75;;;4.75;;
11823;SDS011;5969;50.780;7.726;2023-10-09T10:43:16;7.10;;;4.65;;
11823;SDS011;5969;50.780;7.726;2023-10-09T10:46:00;6.45;;;4.55;;
11823;SDS011;5969;50.780;7.726;2023-10-09T10:48:32;6.22;;;5.00;;
11823;SDS011;5969;50.780;7.726;2023-10-09T10:51:03;7.55;;;4.30;;
11823;SDS011;5969;50.780;7.726;2023-10-09T10:53:30;5.47;;;4.85;;
11823;SDS011;5969;50.780;7.726;2023-10-09T10:56:12;6.25;;;4.25;;
11823;SDS011;5969;50.780;7.726;2023-10-09T10:58:52;6.38;;;4.47;;
11823;SDS011;5969;50.780;7.726;2023-10-09T11:01:36;8.98;;;4.53;;
11823;SDS011;5969;50.780;7.726;2023-10-09T11:04:21;5.60;;;4.50;;
11823;SDS011;5969;50.780;7.726;2023-10-09T11:07:03;7.15;;;4.40;;
11823;SDS011;5969;50.780;7.726;2023-10-09T11:09:45;8.07;;;4.20;;
11823;SDS011;5969;50.780;7.726;2023-10-09T11:12:41;5.93;;;4.55;;
11823;SDS011;5969;50.780;7.726;2023-10-09T11:15:12;6.18;;;3.80;;
11823;SDS011;5969;50.780;7.726;2023-10-09T11:17:57;6.70;;;4.10;;
11823;SDS011;5969;50.780;7.726;2023-10-09T11:20:30;6.75;;;4.10;;
11823;SDS011;5969;50.780;7.726;2023-10-09T11:22:58;6.07;;;4.10;;
11823;SDS011;5969;50.780;7.726;2023-10-09T11:25:39;7.57;;;4.13;;
11823;SDS011;5969;50.780;7.726;2023-10-09T11:28:16;8.32;;;4.10;;
11823;SDS011;5969;50.780;7.726;2023-10-09T11:30:59;5.22;;;3.95;;
11823;SDS011;5969;50.780;7.726;2023-10-09T11:33:42;5.95;;;3.70;;
11823;SDS011;5969;50.780;7.726;2023-10-09T11:36:08;5.63;;;3.75;;
11823;SDS011;5969;50.780;7.726;2023-10-09T11:38:36;5.88;;;4.38;;
11823;SDS011;5969;50.780;7.726;2023-10-09T11:41:11;6.32;;;3.85;;
11823;SDS011;5969;50.780;7.726;2023-10-09T11:43:47;6.72;;;4.40;;
11823;SDS011;5969;50.780;7.726;2023-10-09T11:46:18;6.13;;;3.90;;
11823;SDS011;5969;50.780;7.726;2023-10-09T11:49:13;6.68;;;4.15;;
11823;SDS011;5969;50.780;7.726;2023-10-09T11:52:06;5.75;;;3.95;;
11823;SDS011;5969;50.780;7.726;2023-10-09T11:54:50;5.10;;;4.05;;
11823;SDS011;5969;50.780;7.726;2023-10-09T11:57:21;4.47;;;3.63;;
11823;SDS011;5969;50.780;7.726;2023-10-09T11:59:55;5.82;;;4.15;;
11823;SDS011;5969;50.780;7.726;2023-10-09T12:02:24;5.30;;;3.90;;
11823;SDS011;5969;50.780;7.726;2023-10-09T12:04:51;6.82;;;4.35;;
11823;SDS011;5969;50.780;7.726;2023-10-09T12:07:21;4.95;;;3.72;;
11823;SDS011;5969;50.780;7.726;2023-10-09T12:09:48;6.28;;;4.18;;
11823;SDS011;5969;50.780;7.726;2023-10-09T12:12:16;5.90;;;4.25;;
11823;SDS011;5969;50.780;7.726;2023-10-09T12:14:51;6.90;;;4.13;;
11823;SDS011;5969;50.780;7.726;2023-10-09T12:17:18;5.78;;;4.15;;
11823;SDS011;5969;50.780;7.726;2023-10-09T12:19:51;6.18;;;3.75;;
11823;SDS011;5969;50.780;7.726;2023-10-09T12:22:18;5.43;;;4.07;;
11823;SDS011;5969;50.780;7.726;2023-10-09T12:24:46;6.65;;;4.05;;
11823;SDS011;5969;50.780;7.726;2023-10-09T12:27:13;5.70;;;4.20;;
11823;SDS011;5969;50.780;7.726;2023-10-09T12:29:45;5.25;;;4.00;;
11823;SDS011;5969;50.780;7.726;2023-10-09T12:32:13;8.27;;;3.90;;
11823;SDS011;5969;50.780;7.726;2023-10-09T12:34:44;8.23;;;3.92;;
11823;SDS011;5969;50.780;7.726;2023-10-09T12:37:16;6.03;;;4.68;;
11823;SDS011;5969;50.780;7.726;2023-10-09T12:39:45;6.90;;;4.15;;
11823;SDS011;5969;50.780;7.726;2023-10-09T12:42:13;6.70;;;4.05;;
11823;SDS011;5969;50.780;7.726;2023-10-09T12:44:42;5.65;;;3.95;;
11823;SDS011;5969;50.780;7.726;2023-10-09T12:47:09;6.97;;;3.97;;
11823;SDS011;5969;50.780;7.726;2023-10-09T12:49:37;8.10;;;4.38;;
11823;SDS011;5969;50.780;7.726;2023-10-09T12:52:06;5.28;;;4.15;;
11823;SDS011;5969;50.780;7.726;2023-10-09T12:54:41;5.90;;;4.18;;
11823;SDS011;5969;50.780;7.726;2023-10-09T12:57:11;8.05;;;3.85;;
11823;SDS011;5969;50.780;7.726;2023-10-09T12:59:39;6.50;;;4.20;;
11823;SDS011;5969;50.780;7.726;2023-10-09T13:02:11;7.10;;;4.38;;
11823;SDS011;5969;50.780;7.726;2023-10-09T13:04:38;5.53;;;3.97;;
11823;SDS011;5969;50.780;7.726;2023-10-09T13:07:07;6.43;;;4.13;;
11823;SDS011;5969;50.780;7.726;2023-10-09T13:09:34;5.90;;;4.38;;
11823;SDS011;5969;50.780;7.726;2023-10-09T13:12:08;6.22;;;4.20;;
11823;SDS011;5969;50.780;7.726;2023-10-09T13:14:43;5.70;;;4.30;;
11823;SDS011;5969;50.780;7.726;2023-10-09T13:17:10;7.03;;;4.50;;
11823;SDS011;5969;50.780;7.726;2023-10-09T13:19:38;6.95;;;4.38;;
11823;SDS011;5969;50.780;7.726;2023-10-09T13:22:05;6.57;;;4.28;;
11823;SDS011;5969;50.780;7.726;2023-10-09T13:24:37;7.13;;;3.90;;
11823;SDS011;5969;50.780;7.726;2023-10-09T13:27:05;6.40;;;4.40;;
11823;SDS011;5969;50.780;7.726;2023-10-09T13:29:36;4.53;;;3.83;;
11823;SDS011;5969;50.780;7.726;2023-10-09T13:32:05;6.60;;;4.50;;
11823;SDS011;5969;50.780;7.726;2023-10-09T13:34:38;9.52;;;3.97;;
11823;SDS011;5969;50.780;7.726;2023-10-09T13:37:09;6.38;;;4.35;;
11823;SDS011;5969;50.780;7.726;2023-10-09T13:39:39;5.60;;;4.10;;
11823;SDS011;5969;50.780;7.726;2023-10-09T13:42:17;5.00;;;4.10;;
11823;SDS011;5969;50.780;7.726;2023-10-09T13:44:45;5.30;;;3.63;;
11823;SDS011;5969;50.780;7.726;2023-10-09T13:47:14;7.35;;;4.30;;
11823;SDS011;5969;50.780;7.726;2023-10-09T13:49:46;7.15;;;4.07;;
11823;SDS011;5969;50.780;7.726;2023-10-09T13:52:15;6.05;;;4.45;;
11823;SDS011;5969;50.780;7.726;2023-10-09T13:54:44;5.85;;;4.10;;
11823;SDS011;5969;50.780;7.726;2023-10-09T13:57:13;5.35;;;4.40;;
11823;SDS011;5969;50.780;7.726;2023-10-09T13:59:41;5.10;;;4.28;;
11823;SDS011;5969;50.780;7.726;2023-10-09T14:02:15;5.97;;;4.35;;
11823;SDS011;5969;50.780;7.726;2023-10-09T14:04:46;6.10;;;4.22;;
11823;SDS011;5969;50.780;7.726;2023-10-09T14:07:13;6.90;;;4.05;;
11823;SDS011;5969;50.780;7.726;2023-10-09T14:09:42;5.30;;;4.30;;
11823;SDS011;5969;50.780;7.726;2023-10-09T14:12:20;5.80;;;4.25;;
11823;SDS011;5969;50.780;7.726;2023-10-09T14:14:49;6.28;;;4.40;;
11823;SDS011;5969;50.780;7.726;2023-10-09T14:17:21;5.95;;;4.00;;
11823;SDS011;5969;50.780;7.726;2023-10-09T16:49:30;15.77;;;10.68;;
11823;SDS011;5969;50.780;7.726;2023-10-09T16:51:57;20.85;;;13.88;;
11823;SDS011;5969;50.780;7.726;2023-10-09T16:54:25;8.50;;;5.75;;
11823;SDS011;5969;50.780;7.726;2023-10-09T16:56:52;9.35;;;6.13;;
11823;SDS011;5969;50.780;7.726;2023-10-09T16:59:20;8.40;;;5.38;;
11823;SDS011;5969;50.780;7.726;2023-10-09T17:01:48;7.68;;;5.78;;
11823;SDS011;5969;50.780;7.726;2023-10-09T17:04:16;6.75;;;5.18;;
11823;SDS011;5969;50.780;7.726;2023-10-09T17:06:46;8.18;;;5.18;;
11823;SDS011;5969;50.780;7.726;2023-10-09T17:09:16;6.95;;;5.47;;
11823;SDS011;5969;50.780;7.726;2023-10-09T17:11:45;6.45;;;5.22;;
11823;SDS011;5969;50.780;7.726;2023-10-09T17:14:17;6.45;;;5.47;;
11823;SDS011;5969;50.780;7.726;2023-10-09T17:16:50;6.88;;;6.18;;
11823;SDS011;5969;50.780;7.726;2023-10-09T17:19:19;8.20;;;5.80;;
11823;SDS011;5969;50.780;7.726;2023-10-09T17:21:50;6.38;;;5.25;;
11823;SDS011;5969;50.780;7.726;2023-10-09T17:24:17;7.78;;;5.85;;
11823;SDS011;5969;50.780;7.726;2023-10-09T17:26:47;7.40;;;5.32;;
11823;SDS011;5969;50.780;7.726;2023-10-09T17:29:16;8.45;;;5.68;;
11823;SDS011;5969;50.780;7.726;2023-10-09T17:31:43;6.28;;;5.43;;
11823;SDS011;5969;50.780;7.726;2023-10-09T17:34:10;7.95;;;5.88;;
11823;SDS011;5969;50.780;7.726;2023-10-09T17:36:37;10.48;;;6.47;;
11823;SDS011;5969;50.780;7.726;2023-10-09T17:39:06;7.88;;;5.95;;
11823;SDS011;5969;50.780;7.726;2023-10-09T17:41:33;9.27;;;5.60;;
11823;SDS011;5969;50.780;7.726;2023-10-09T17:44:01;8.35;;;6.30;;
11823;SDS011;5969;50.780;7.726;2023-10-09T17:46:28;13.13;;;6.57;;
11823;SDS011;5969;50.780;7.726;2023-10-09T17:48:55;10.05;;;6.38;;
11823;SDS011;5969;50.780;7.726;2023-10-09T17:51:22;7.28;;;5.95;;
11823;SDS011;5969;50.780;7.726;2023-10-09T17:53:49;8.27;;;6.30;;
11823;SDS011;5969;50.780;7.726;2023-10-09T17:56:18;7.78;;;6.60;;
11823;SDS011;5969;50.780;7.726;2023-10-09T17:58:50;10.38;;;6.70;;
11823;SDS011;5969;50.780;7.726;2023-10-09T18:01:17;7.60;;;6.30;;
11823;SDS011;5969;50.780;7.726;2023-10-09T18:03:49;7.63;;;5.30;;
11823;SDS011;5969;50.780;7.726;2023-10-09T18:06:16;6.90;;;5.70;;
11823;SDS011;5969;50.780;7.726;2023-10-09T18:08:43;8.60;;;5.85;;
11823;SDS011;5969;50.780;7.726;2023-10-09T18:11:11;7.93;;;6.63;;
11823;SDS011;5969;50.780;7.726;2023-10-09T18:13:40;11.10;;;6.28;;
11823;SDS011;5969;50.780;7.726;2023-10-09T18:16:08;8.50;;;6.30;;